sensor_id;sensor_type;location;lat;lon;timestamp;pressure;altitude;pressure_sealevel;temperature;humidity
51313;BME280;37397;53.226;10.400;2024-03-02T00:00:07;100061.00;;;9.97;70.11
51313;BME280;37397;53.226;10.400;2024-03-02T00:05:07;100056.06;;;9.98;70.26
51313;BME280;37397;53.226;10.400;2024-03-02T00:07:37;100057.38;;;9.97;70.12
51313;BME280;37397;53.226;10.400;2024-03-02T00:10:09;100057.06;;;9.95;70.12
51313;BME280;37397;53.226;10.400;2024-03-02T00:12:39;100047.25;;;9.96;70.13
51313;BME280;37397;53.226;10.400;2024-03-02T00:15:31;100043.63;;;9.95;70.13
51313;BME280;37397;53.226;10.400;2024-03-02T00:18:04;100046.47;;;9.95;70.24
51313;BME280;37397;53.226;10.400;2024-03-02T00:20:31;100051.38;;;9.95;70.18
51313;BME280;37397;53.226;10.400;2024-03-02T00:23:03;100047.47;;;9.92;70.18
51313;BME280;37397;53.226;10.400;2024-03-02T00:25:42;100038.91;;;9.92;70.11
51313;BME280;37397;53.226;10.400;2024-03-02T00:28:24;100051.56;;;9.91;70.25
51313;BME280;37397;53.226;10.400;2024-03-02T00:31:09;100050.03;;;9.90;70.29
51313;BME280;37397;53.226;10.400;2024-03-02T00:33:41;100048.22;;;9.93;70.36
51313;BME280;37397;53.226;10.400;2024-03-02T00:36:10;100045.09;;;9.91;70.26
51313;BME280;37397;53.226;10.400;2024-03-02T00:38:51;100042.25;;;9.91;70.32
51313;BME280;37397;53.226;10.400;2024-03-02T00:41:22;100036.56;;;9.91;70.36
51313;BME280;37397;53.226;10.400;2024-03-02T00:43:57;100048.44;;;9.89;70.28
51313;BME280;37397;53.226;10.400;2024-03-02T00:46:24;100047.84;;;9.85;70.47
51313;BME280;37397;53.226;10.400;2024-03-02T00:48:58;100042.97;;;9.85;70.34
51313;BME280;37397;53.226;10.400;2024-03-02T00:51:27;100038.03;;;9.86;70.34
51313;BME280;37397;53.226;10.400;2024-03-02T00:53:55;100039.31;;;9.85;70.45
51313;BME280;37397;53.226;10.400;2024-03-02T00:56:24;100035.97;;;9.86;70.53
51313;BME280;37397;53.226;10.400;2024-03-02T00:58:51;100030.75;;;9.85;70.46
51313;BME280;37397;53.226;10.400;2024-03-02T01:01:18;100026.34;;;9.84;70.49
51313;BME280;37397;53.226;10.400;2024-03-02T01:03:46;100017.00;;;9.83;70.56
51313;BME280;37397;53.226;10.400;2024-03-02T01:06:12;100021.72;;;9.86;70.54
51313;BME280;37397;53.226;10.400;2024-03-02T01:08:39;100024.56;;;9.86;70.41
51313;BME280;37397;53.226;10.400;2024-03-02T01:11:06;100023.00;;;9.85;70.47
51313;BME280;37397;53.226;10.400;2024-03-02T01:13:33;100023.00;;;9.85;70.23
51313;BME280;37397;53.226;10.400;2024-03-02T01:16:01;100014.47;;;9.85;70.43
51313;BME280;37397;53.226;10.400;2024-03-02T01:18:27;100028.72;;;9.85;70.43
51313;BME280;37397;53.226;10.400;2024-03-02T01:20:54;100012.28;;;9.80;70.35
51313;BME280;37397;53.226;10.400;2024-03-02T01:23:24;100027.91;;;9.85;70.41
51313;BME280;37397;53.226;10.400;2024-03-02T01:25:51;100024.28;;;9.84;70.32
51313;BME280;37397;53.226;10.400;2024-03-02T01:28:18;100029.22;;;9.84;70.41
51313;BME280;37397;53.226;10.400;2024-03-02T01:30:45;100020.34;;;9.82;70.36
51313;BME280;37397;53.226;10.400;2024-03-02T01:33:11;100013.09;;;9.81;70.42
51313;BME280;37397;53.226;10.400;2024-03-02T01:35:38;100014.66;;;9.82;70.36
51313;BME280;37397;53.226;10.400;2024-03-02T01:38:05;100012.28;;;9.80;70.59
51313;BME280;37397;53.226;10.400;2024-03-02T01:40:36;100006.59;;;9.80;70.25
51313;BME280;37397;53.226;10.400;2024-03-02T01:43:04;100009.44;;;9.80;70.40
51313;BME280;37397;53.226;10.400;2024-03-02T01:45:31;100004.75;;;9.77;70.24
51313;BME280;37397;53.226;10.400;2024-03-02T01:47:58;100011.75;;;9.76;70.17
51313;BME280;37397;53.226;10.400;2024-03-02T01:50:27;100010.47;;;9.77;70.26
51313;BME280;37397;53.226;10.400;2024-03-02T01:52:58;100014.59;;;9.76;70.18
51313;BME280;37397;53.226;10.400;2024-03-02T01:55:25;100014.31;;;9.74;70.22
51313;BME280;37397;53.226;10.400;2024-03-02T01:57:52;100017.44;;;9.76;70.36
51313;BME280;37397;53.226;10.400;2024-03-02T02:00:20;100023.13;;;9.76;70.32
51313;BME280;37397;53.226;10.400;2024-03-02T02:02:47;100021.56;;;9.75;70.33
51313;BME280;37397;53.226;10.400;2024-03-02T02:05:14;100019.69;;;9.72;70.38
51313;BME280;37397;53.226;10.400;2024-03-02T02:07:41;100013.50;;;9.74;70.37
51313;BME280;37397;53.226;10.400;2024-03-02T02:10:10;100013.72;;;9.70;70.33
51313;BME280;37397;53.226;10.400;2024-03-02T02:12:37;100024.91;;;9.74;70.41
51313;BME280;37397;53.226;10.400;2024-03-02T02:15:27;100032.38;;;9.71;70.48
51313;BME280;37397;53.226;10.400;2024-03-02T02:17:55;100021.00;;;9.71;70.42
51313;BME280;37397;53.226;10.400;2024-03-02T02:20:22;100023.84;;;9.71;70.34
51313;BME280;37397;53.226;10.400;2024-03-02T02:23:02;100022.75;;;9.68;70.25
51313;BME280;37397;53.226;10.400;2024-03-02T02:25:29;100013.72;;;9.70;70.38
51313;BME280;37397;53.226;10.400;2024-03-02T02:27:57;100005.66;;;9.68;70.48
51313;BME280;37397;53.226;10.400;2024-03-02T02:30:29;100004.88;;;9.68;70.31
51313;BME280;37397;53.226;10.400;2024-03-02T02:32:57;100003.03;;;9.65;70.50
51313;BME280;37397;53.226;10.400;2024-03-02T02:35:24;99998.38;;;9.67;70.39
51313;BME280;37397;53.226;10.400;2024-03-02T02:37:52;100002.03;;;9.68;70.49
51313;BME280;37397;53.226;10.400;2024-03-02T02:40:19;100001.44;;;9.64;70.51
51313;BME280;37397;53.226;10.400;2024-03-02T02:42:46;100005.88;;;9.65;70.47
51313;BME280;37397;53.226;10.400;2024-03-02T02:45:13;100013.94;;;9.66;70.53
51313;BME280;37397;53.226;10.400;2024-03-02T02:47:42;100012.34;;;9.65;70.40
51313;BME280;37397;53.226;10.400;2024-03-02T02:50:09;100009.00;;;9.67;70.53
51313;BME280;37397;53.226;10.400;2024-03-02T02:52:37;100009.22;;;9.63;70.62
51313;BME280;37397;53.226;10.400;2024-03-02T02:55:11;100006.38;;;9.63;70.43
51313;BME280;37397;53.226;10.400;2024-03-02T02:57:39;100000.66;;;9.63;70.48
51313;BME280;37397;53.226;10.400;2024-03-02T03:00:08;99997.81;;;9.63;70.57
51313;BME280;37397;53.226;10.400;2024-03-02T03:02:44;99999.31;;;9.59;70.56
51313;BME280;37397;53.226;10.400;2024-03-02T03:05:12;100003.25;;;9.61;70.54
51313;BME280;37397;53.226;10.400;2024-03-02T03:07:41;99996.25;;;9.62;70.53
51313;BME280;37397;53.226;10.400;2024-03-02T03:10:08;99990.75;;;9.59;70.67
51313;BME280;37397;53.226;10.400;2024-03-02T03:12:35;99998.03;;;9.60;70.64
51313;BME280;37397;53.226;10.400;2024-03-02T03:15:03;100001.66;;;9.60;70.55
51313;BME280;37397;53.226;10.400;2024-03-02T03:17:30;99990.25;;;9.60;70.61
51313;BME280;37397;53.226;10.400;2024-03-02T03:19:57;99990.75;;;9.59;70.58
51313;BME280;37397;53.226;10.400;2024-03-02T03:22:24;99989.19;;;9.58;70.66
51313;BME280;37397;53.226;10.400;2024-03-02T03:24:50;99989.19;;;9.58;70.52
51313;BME280;37397;53.226;10.400;2024-03-02T03:27:17;99985.56;;;9.57;70.56
51313;BME280;37397;53.226;10.400;2024-03-02T03:29:44;99990.75;;;9.59;70.69
51313;BME280;37397;53.226;10.400;2024-03-02T03:32:10;99990.47;;;9.57;70.52
51313;BME280;37397;53.226;10.400;2024-03-02T03:34:37;99983.19;;;9.56;70.60
51313;BME280;37397;53.226;10.400;2024-03-02T03:37:03;99988.41;;;9.57;70.71
51313;BME280;37397;53.226;10.400;2024-03-02T03:39:30;99986.81;;;9.56;70.77
51313;BME280;37397;53.226;10.400;2024-03-02T03:41:57;99974.09;;;9.52;70.62
51313;BME280;37397;53.226;10.400;2024-03-02T03:44:23;99985.28;;;9.55;70.66
51313;BME280;37397;53.226;10.400;2024-03-02T03:46:50;99981.66;;;9.55;70.60
51313;BME280;37397;53.226;10.400;2024-03-02T03:49:17;99978.00;;;9.54;70.69
51313;BME280;37397;53.226;10.400;2024-03-02T03:51:43;99983.69;;;9.54;70.59
51313;BME280;37397;53.226;10.400;2024-03-02T03:54:10;99983.91;;;9.51;70.67
51313;BME280;37397;53.226;10.400;2024-03-02T03:56:38;99973.78;;;9.49;70.72
51313;BME280;37397;53.226;10.400;2024-03-02T03:59:04;99985.78;;;9.54;70.52
51313;BME280;37397;53.226;10.400;2024-03-02T04:01:31;99982.63;;;9.52;70.69
51313;BME280;37397;53.226;10.400;2024-03-02T04:04:00;99975.66;;;9.53;70.71
51313;BME280;37397;53.226;10.400;2024-03-02T04:06:29;99970.44;;;9.51;70.59
51313;BME280;37397;53.226;10.400;2024-03-02T04:08:56;99968.41;;;9.52;70.66
51313;BME280;37397;53.226;10.400;2024-03-02T04:11:23;99972.50;;;9.51;70.70
51313;BME280;37397;53.226;10.400;2024-03-02T04:13:50;99987.25;;;9.49;70.79
51313;BME280;37397;53.226;10.400;2024-03-02T04:16:16;99979.69;;;9.46;70.66
51313;BME280;37397;53.226;10.400;2024-03-02T04:18:43;99989.59;;;9.51;70.78
51313;BME280;37397;53.226;10.400;2024-03-02T04:21:09;99978.72;;;9.49;70.67
51313;BME280;37397;53.226;10.400;2024-03-02T04:23:36;99973.78;;;9.49;70.79
51313;BME280;37397;53.226;10.400;2024-03-02T04:26:03;99967.53;;;9.45;70.73
51313;BME280;37397;53.226;10.400;2024-03-02T04:28:29;99972.25;;;9.48;70.65
51313;BME280;37397;53.226;10.400;2024-03-02T04:30:56;99973.50;;;9.47;70.81
51313;BME280;37397;53.226;10.400;2024-03-02T04:33:22;99973.50;;;9.47;70.76
51313;BME280;37397;53.226;10.400;2024-03-02T04:35:49;99969.06;;;9.46;70.76
51313;BME280;37397;53.226;10.400;2024-03-02T04:38:15;99969.06;;;9.46;70.94
51313;BME280;37397;53.226;10.400;2024-03-02T04:40:42;99966.72;;;9.45;70.74
51313;BME280;37397;53.226;10.400;2024-03-02T04:43:08;99973.72;;;9.44;70.74
51313;BME280;37397;53.226;10.400;2024-03-02T04:45:38;99974.50;;;9.44;70.68
51313;BME280;37397;53.226;10.400;2024-03-02T04:48:06;99983.31;;;9.46;70.65
51313;BME280;37397;53.226;10.400;2024-03-02T04:50:32;99975.47;;;9.41;70.67
51313;BME280;37397;53.226;10.400;2024-03-02T04:52:59;99981.75;;;9.45;70.83
51313;BME280;37397;53.226;10.400;2024-03-02T04:55:25;99979.41;;;9.44;70.71
51313;BME280;37397;53.226;10.400;2024-03-02T04:57:55;99975.47;;;9.41;70.71
51313;BME280;37397;53.226;10.400;2024-03-02T05:00:22;99980.41;;;9.41;70.73
51313;BME280;37397;53.226;10.400;2024-03-02T05:02:49;99988.44;;;9.42;70.77
51313;BME280;37397;53.226;10.400;2024-03-02T05:05:16;99990.00;;;9.43;70.69
51313;BME280;37397;53.226;10.400;2024-03-02T05:07:43;99991.00;;;9.40;70.62
51313;BME280;37397;53.226;10.400;2024-03-02T05:10:10;99988.66;;;9.39;70.71
51313;BME280;37397;53.226;10.400;2024-03-02T05:12:41;99986.59;;;9.39;70.69
51313;BME280;37397;53.226;10.400;2024-03-02T05:15:12;99998.25;;;9.41;70.79
51313;BME280;37397;53.226;10.400;2024-03-02T05:17:40;99988.66;;;9.39;70.73
51313;BME280;37397;53.226;10.400;2024-03-02T05:20:07;99986.31;;;9.37;70.72
51313;BME280;37397;53.226;10.400;2024-03-02T05:22:37;99986.31;;;9.37;70.72
51313;BME280;37397;53.226;10.400;2024-03-02T05:25:04;99991.50;;;9.39;70.66
51313;BME280;37397;53.226;10.400;2024-03-02T05:27:31;99986.31;;;9.37;70.77
51313;BME280;37397;53.226;10.400;2024-03-02T05:30:01;99980.28;;;9.35;70.84
51313;BME280;37397;53.226;10.400;2024-03-02T05:32:28;99984.72;;;9.36;70.82
51313;BME280;37397;53.226;10.400;2024-03-02T05:34:54;99979.81;;;9.37;70.76
51313;BME280;37397;53.226;10.400;2024-03-02T05:37:21;99974.59;;;9.35;70.72
51313;BME280;37397;53.226;10.400;2024-03-02T05:39:48;99980.28;;;9.35;70.83
51313;BME280;37397;53.226;10.400;2024-03-02T05:42:15;99975.91;;;9.34;70.70
51313;BME280;37397;53.226;10.400;2024-03-02T05:44:43;99981.59;;;9.34;70.72
51313;BME280;37397;53.226;10.400;2024-03-02T05:47:10;99975.91;;;9.34;70.67
51313;BME280;37397;53.226;10.400;2024-03-02T05:49:37;99976.88;;;9.31;70.66
51313;BME280;37397;53.226;10.400;2024-03-02T05:52:03;99983.84;;;9.30;70.83
51313;BME280;37397;53.226;10.400;2024-03-02T05:54:30;99994.25;;;9.33;70.71
51313;BME280;37397;53.226;10.400;2024-03-02T05:56:57;100002.00;;;9.33;70.69
51313;BME280;37397;53.226;10.400;2024-03-02T05:59:24;100001.22;;;9.32;70.70
51313;BME280;37397;53.226;10.400;2024-03-02T06:01:50;99995.22;;;9.30;70.70
51313;BME280;37397;53.226;10.400;2024-03-02T06:04:18;99992.09;;;9.28;70.81
51313;BME280;37397;53.226;10.400;2024-03-02T06:06:45;100000.94;;;9.30;70.75
51313;BME280;37397;53.226;10.400;2024-03-02T06:09:11;100003.50;;;9.28;70.78
51313;BME280;37397;53.226;10.400;2024-03-02T06:11:42;100001.41;;;9.28;70.86
51313;BME280;37397;53.226;10.400;2024-03-02T06:14:09;100000.66;;;9.28;70.76
51313;BME280;37397;53.226;10.400;2024-03-02T06:16:36;100006.06;;;9.26;70.80
51313;BME280;37397;53.226;10.400;2024-03-02T06:19:02;100000.34;;;9.26;70.91
51313;BME280;37397;53.226;10.400;2024-03-02T06:21:29;99993.38;;;9.27;70.93
51313;BME280;37397;53.226;10.400;2024-03-02T06:23:56;100001.13;;;9.26;70.70
51313;BME280;37397;53.226;10.400;2024-03-02T06:26:23;99997.78;;;9.28;70.85
51313;BME280;37397;53.226;10.400;2024-03-02T06:28:51;99997.50;;;9.26;70.89
51313;BME280;37397;53.226;10.400;2024-03-02T06:31:18;99995.94;;;9.25;70.85
51313;BME280;37397;53.226;10.400;2024-03-02T06:33:46;99993.09;;;9.25;70.87
51313;BME280;37397;53.226;10.400;2024-03-02T06:36:12;100007.03;;;9.23;71.00
51313;BME280;37397;53.226;10.400;2024-03-02T06:38:39;100005.75;;;9.24;70.86
51313;BME280;37397;53.226;10.400;2024-03-02T06:41:09;100005.75;;;9.24;70.88
51313;BME280;37397;53.226;10.400;2024-03-02T06:43:36;100004.47;;;9.25;70.96
51313;BME280;37397;53.226;10.400;2024-03-02T06:46:02;100009.38;;;9.24;70.99
51313;BME280;37397;53.226;10.400;2024-03-02T06:48:29;100011.44;;;9.24;70.89
51313;BME280;37397;53.226;10.400;2024-03-02T06:50:57;100007.03;;;9.23;70.95
51313;BME280;37397;53.226;10.400;2024-03-02T06:53:24;100006.72;;;9.21;71.06
51313;BME280;37397;53.226;10.400;2024-03-02T06:55:51;100010.38;;;9.21;71.04
51313;BME280;37397;53.226;10.400;2024-03-02T06:58:18;100017.13;;;9.24;70.97
51313;BME280;37397;53.226;10.400;2024-03-02T07:00:45;100017.34;;;9.20;71.04
51313;BME280;37397;53.226;10.400;2024-03-02T07:03:11;100010.88;;;9.20;71.13
51313;BME280;37397;53.226;10.400;2024-03-02T07:05:38;100015.25;;;9.21;71.12
51313;BME280;37397;53.226;10.400;2024-03-02T07:08:05;100016.56;;;9.20;71.15
51313;BME280;37397;53.226;10.400;2024-03-02T07:10:32;100005.94;;;9.20;71.37
51313;BME280;37397;53.226;10.400;2024-03-02T07:12:58;100012.41;;;9.21;71.16
51313;BME280;37397;53.226;10.400;2024-03-02T07:15:25;100016.34;;;9.23;71.14
51313;BME280;37397;53.226;10.400;2024-03-02T07:17:55;100004.19;;;9.23;71.17
51313;BME280;37397;53.226;10.400;2024-03-02T07:20:21;100010.06;;;9.19;71.14
51313;BME280;37397;53.226;10.400;2024-03-02T07:22:48;100013.22;;;9.21;71.35
51313;BME280;37397;53.226;10.400;2024-03-02T07:25:15;100004.69;;;9.21;71.24
51313;BME280;37397;53.226;10.400;2024-03-02T07:27:44;100007.53;;;9.21;71.26
51313;BME280;37397;53.226;10.400;2024-03-02T07:30:14;100009.88;;;9.23;71.21
51313;BME280;37397;53.226;10.400;2024-03-02T07:32:42;100006.72;;;9.21;71.28
51313;BME280;37397;53.226;10.400;2024-03-02T07:35:12;100008.31;;;9.22;71.37
51313;BME280;37397;53.226;10.400;2024-03-02T07:37:41;100016.84;;;9.22;71.31
51313;BME280;37397;53.226;10.400;2024-03-02T07:40:08;100028.50;;;9.24;71.40
51313;BME280;37397;53.226;10.400;2024-03-02T07:42:41;100031.34;;;9.24;71.25
51313;BME280;37397;53.226;10.400;2024-03-02T07:45:08;100036.78;;;9.22;71.45
51313;BME280;37397;53.226;10.400;2024-03-02T07:47:35;100044.63;;;9.27;71.56
51313;BME280;37397;53.226;10.400;2024-03-02T07:50:02;100048.75;;;9.26;71.57
51313;BME280;37397;53.226;10.400;2024-03-02T07:52:29;100038.63;;;9.25;71.72
51313;BME280;37397;53.226;10.400;2024-03-02T07:54:56;100048.75;;;9.26;71.67
51313;BME280;37397;53.226;10.400;2024-03-02T07:57:22;100045.09;;;9.25;71.50
51313;BME280;37397;53.226;10.400;2024-03-02T07:59:49;100054.44;;;9.26;71.73
51313;BME280;37397;53.226;10.400;2024-03-02T08:02:16;100060.72;;;9.30;71.71
51313;BME280;37397;53.226;10.400;2024-03-02T08:04:43;100062.00;;;9.29;71.69
51313;BME280;37397;53.226;10.400;2024-03-02T08:07:09;100058.97;;;9.33;71.66
51313;BME280;37397;53.226;10.400;2024-03-02T08:09:36;100059.16;;;9.29;71.70
51313;BME280;37397;53.226;10.400;2024-03-02T08:12:02;100067.00;;;9.34;71.68
51313;BME280;37397;53.226;10.400;2024-03-02T08:14:29;100065.72;;;9.35;71.69
51313;BME280;37397;53.226;10.400;2024-03-02T08:16:55;100067.00;;;9.34;71.81
51313;BME280;37397;53.226;10.400;2024-03-02T08:19:22;100077.41;;;9.37;71.89
51313;BME280;37397;53.226;10.400;2024-03-02T08:21:49;100081.31;;;9.40;72.03
51313;BME280;37397;53.226;10.400;2024-03-02T08:24:16;100077.69;;;9.39;71.94
51313;BME280;37397;53.226;10.400;2024-03-02T08:26:42;100077.97;;;9.41;71.95
51313;BME280;37397;53.226;10.400;2024-03-02T08:29:09;100075.44;;;9.43;72.04
51313;BME280;37397;53.226;10.400;2024-03-02T08:31:36;100079.84;;;9.44;72.12
51313;BME280;37397;53.226;10.400;2024-03-02T08:34:07;100075.75;;;9.45;71.99
51313;BME280;37397;53.226;10.400;2024-03-02T08:36:34;100071.59;;;9.46;71.99
51313;BME280;37397;53.226;10.400;2024-03-02T08:39:00;100077.28;;;9.46;71.97
51313;BME280;37397;53.226;10.400;2024-03-02T08:41:27;100081.22;;;9.49;72.10
51313;BME280;37397;53.226;10.400;2024-03-02T08:43:54;100096.84;;;9.54;72.20
51313;BME280;37397;53.226;10.400;2024-03-02T08:46:20;100081.34;;;9.55;72.01
51313;BME280;37397;53.226;10.400;2024-03-02T08:48:47;100081.34;;;9.55;72.08
51313;BME280;37397;53.226;10.400;2024-03-02T08:51:14;100089.19;;;9.60;72.16
51313;BME280;37397;53.226;10.400;2024-03-02T08:53:40;100081.13;;;9.58;72.18
51313;BME280;37397;53.226;10.400;2024-03-02T08:56:07;100076.97;;;9.59;72.21
51313;BME280;37397;53.226;10.400;2024-03-02T08:58:34;100076.81;;;9.63;72.40
51313;BME280;37397;53.226;10.400;2024-03-02T09:01:01;100079.66;;;9.63;72.25
51313;BME280;37397;53.226;10.400;2024-03-02T09:03:28;100082.09;;;9.70;72.23
51313;BME280;37397;53.226;10.400;2024-03-02T09:05:54;100069.91;;;9.70;72.36
51313;BME280;37397;53.226;10.400;2024-03-02T09:08:21;100088.38;;;9.74;72.23
51313;BME280;37397;53.226;10.400;2024-03-02T09:10:48;100086.81;;;9.73;72.20
51313;BME280;37397;53.226;10.400;2024-03-02T09:13:14;100084.06;;;9.79;72.25
51313;BME280;37397;53.226;10.400;2024-03-02T09:15:41;100086.09;;;9.78;72.18
51313;BME280;37397;53.226;10.400;2024-03-02T09:18:08;100086.69;;;9.82;72.45
51313;BME280;37397;53.226;10.400;2024-03-02T09:20:35;100082.06;;;9.85;72.32
51313;BME280;37397;53.226;10.400;2024-03-02T09:23:01;100090.41;;;9.89;72.24
51313;BME280;37397;53.226;10.400;2024-03-02T09:25:28;100084.22;;;9.90;72.39
51313;BME280;37397;53.226;10.400;2024-03-02T09:27:55;100083.41;;;9.90;72.35
51313;BME280;37397;53.226;10.400;2024-03-02T09:30:21;100082.44;;;9.93;72.24
51313;BME280;37397;53.226;10.400;2024-03-02T09:32:48;100081.44;;;9.96;72.17
51313;BME280;37397;53.226;10.400;2024-03-02T09:35:16;100086.16;;;9.99;72.26
51313;BME280;37397;53.226;10.400;2024-03-02T09:37:42;100085.16;;;10.02;72.38
51313;BME280;37397;53.226;10.400;2024-03-02T09:40:10;100089.88;;;10.05;72.44
51313;BME280;37397;53.226;10.400;2024-03-02T09:42:37;100089.88;;;10.05;72.27
51313;BME280;37397;53.226;10.400;2024-03-02T09:45:05;100092.03;;;10.10;72.19
51313;BME280;37397;53.226;10.400;2024-03-02T09:47:31;100085.03;;;10.11;72.31
51313;BME280;37397;53.226;10.400;2024-03-02T09:49:58;100094.66;;;10.14;72.19
51313;BME280;37397;53.226;10.400;2024-03-02T09:52:25;100091.59;;;10.17;72.34
51313;BME280;37397;53.226;10.400;2024-03-02T09:54:51;100100.44;;;10.19;72.20
51313;BME280;37397;53.226;10.400;2024-03-02T09:57:18;100090.59;;;10.20;72.24
51313;BME280;37397;53.226;10.400;2024-03-02T09:59:45;100099.75;;;10.25;72.26
51313;BME280;37397;53.226;10.400;2024-03-02T10:02:12;100093.25;;;10.24;72.12
51313;BME280;37397;53.226;10.400;2024-03-02T10:04:39;100101.59;;;10.28;72.18
51313;BME280;37397;53.226;10.400;2024-03-02T10:07:12;100094.91;;;10.31;72.17
51313;BME280;37397;53.226;10.400;2024-03-02T10:09:40;100100.91;;;10.33;72.10
51313;BME280;37397;53.226;10.400;2024-03-02T10:12:08;100096.78;;;10.34;72.22
51313;BME280;37397;53.226;10.400;2024-03-02T10:14:35;100099.91;;;10.36;72.15
51313;BME280;37397;53.226;10.400;2024-03-02T10:17:07;100093.72;;;10.37;72.12
51313;BME280;37397;53.226;10.400;2024-03-02T10:19:34;100100.19;;;10.38;71.72
51313;BME280;37397;53.226;10.400;2024-03-02T10:22:03;100108.84;;;10.44;71.98
51313;BME280;37397;53.226;10.400;2024-03-02T10:24:44;100114.06;;;10.45;72.02
51313;BME280;37397;53.226;10.400;2024-03-02T10:27:23;100103.63;;;10.42;72.11
51313;BME280;37397;53.226;10.400;2024-03-02T10:29:50;100106.28;;;10.46;72.11
51313;BME280;37397;53.226;10.400;2024-03-02T10:32:16;100110.22;;;10.48;71.88
51313;BME280;37397;53.226;10.400;2024-03-02T10:34:45;100115.97;;;10.54;71.83
51313;BME280;37397;53.226;10.400;2024-03-02T10:37:11;100114.41;;;10.53;72.03
51313;BME280;37397;53.226;10.400;2024-03-02T10:39:39;100103.28;;;10.55;72.10
51313;BME280;37397;53.226;10.400;2024-03-02T10:42:07;100111.63;;;10.58;71.66
51313;BME280;37397;53.226;10.400;2024-03-02T10:44:35;100112.22;;;10.63;71.60
51313;BME280;37397;53.226;10.400;2024-03-02T10:47:03;100109.63;;;10.65;71.86
51313;BME280;37397;53.226;10.400;2024-03-02T10:49:31;100115.63;;;10.67;71.97
51313;BME280;37397;53.226;10.400;2024-03-02T10:51:59;100118.75;;;10.69;71.84
51313;BME280;37397;53.226;10.400;2024-03-02T10:54:26;100118.75;;;10.69;71.85
51313;BME280;37397;53.226;10.400;2024-03-02T10:56:58;100116.19;;;10.71;71.86
51313;BME280;37397;53.226;10.400;2024-03-02T10:59:35;100121.91;;;10.71;71.80
51313;BME280;37397;53.226;10.400;2024-03-02T11:02:04;100123.75;;;10.74;71.94
51313;BME280;37397;53.226;10.400;2024-03-02T11:04:32;100117.56;;;10.75;71.95
51313;BME280;37397;53.226;10.400;2024-03-02T11:07:06;100120.47;;;10.81;71.80
51313;BME280;37397;53.226;10.400;2024-03-02T11:09:34;100110.13;;;10.84;71.73
51313;BME280;37397;53.226;10.400;2024-03-02T11:12:12;100115.03;;;10.83;71.78
51313;BME280;37397;53.226;10.400;2024-03-02T11:14:41;100114.84;;;10.87;71.81
51313;BME280;37397;53.226;10.400;2024-03-02T11:17:13;100115.66;;;10.93;71.89
51313;BME280;37397;53.226;10.400;2024-03-02T11:19:42;100117.25;;;10.94;71.82
51313;BME280;37397;53.226;10.400;2024-03-02T11:22:10;100111.03;;;10.95;71.82
51313;BME280;37397;53.226;10.400;2024-03-02T11:24:36;100106.91;;;10.97;71.67
51313;BME280;37397;53.226;10.400;2024-03-02T11:27:06;100107.44;;;11.01;71.57
51313;BME280;37397;53.226;10.400;2024-03-02T11:32:20;100120.50;;;11.07;71.46
51313;BME280;37397;53.226;10.400;2024-03-02T11:34:49;100114.28;;;11.09;71.56
51313;BME280;37397;53.226;10.400;2024-03-02T11:37:19;100116.13;;;11.12;71.53
51313;BME280;37397;53.226;10.400;2024-03-02T11:39:50;100113.56;;;11.14;71.73
51313;BME280;37397;53.226;10.400;2024-03-02T11:42:17;100113.84;;;11.16;71.72
51313;BME280;37397;53.226;10.400;2024-03-02T11:44:46;100112.84;;;11.19;71.65
51313;BME280;37397;53.226;10.400;2024-03-02T11:47:15;100102.69;;;11.18;71.66
51313;BME280;37397;53.226;10.400;2024-03-02T11:49:44;100114.69;;;11.22;71.64
51313;BME280;37397;53.226;10.400;2024-03-02T11:52:14;100113.69;;;11.25;71.65
51313;BME280;37397;53.226;10.400;2024-03-02T11:54:43;100104.56;;;11.21;71.11
51313;BME280;37397;53.226;10.400;2024-03-02T11:57:15;100114.25;;;11.29;71.35
51313;BME280;37397;53.226;10.400;2024-03-02T11:59:43;100108.53;;;11.29;71.26
51313;BME280;37397;53.226;10.400;2024-03-02T12:02:19;100113.22;;;11.32;71.31
51313;BME280;37397;53.226;10.400;2024-03-02T12:04:48;100103.38;;;11.34;71.38
51313;BME280;37397;53.226;10.400;2024-03-02T12:07:22;100105.75;;;11.35;71.29
51313;BME280;37397;53.226;10.400;2024-03-02T12:09:59;100105.50;;;11.39;71.37
51313;BME280;37397;53.226;10.400;2024-03-02T12:12:27;100107.84;;;11.40;71.27
51313;BME280;37397;53.226;10.400;2024-03-02T12:14:53;100107.06;;;11.40;71.53
51313;BME280;37397;53.226;10.400;2024-03-02T12:17:22;100110.75;;;11.46;71.42
51313;BME280;37397;53.226;10.400;2024-03-02T12:19:49;100100.34;;;11.43;71.50
51313;BME280;37397;53.226;10.400;2024-03-02T12:22:16;100108.19;;;11.48;71.37
51313;BME280;37397;53.226;10.400;2024-03-02T12:24:44;100106.88;;;11.49;71.39
51313;BME280;37397;53.226;10.400;2024-03-02T12:27:12;100100.66;;;11.50;71.46
51313;BME280;37397;53.226;10.400;2024-03-02T12:29:41;100094.97;;;11.50;71.38
51313;BME280;37397;53.226;10.400;2024-03-02T12:32:07;100095.72;;;11.51;71.40
51313;BME280;37397;53.226;10.400;2024-03-02T12:34:34;100096.03;;;11.53;71.29
51313;BME280;37397;53.226;10.400;2024-03-02T12:37:01;100097.56;;;11.54;71.26
51313;BME280;37397;53.226;10.400;2024-03-02T12:39:28;100094.72;;;11.54;71.36
51313;BME280;37397;53.226;10.400;2024-03-02T12:41:55;100087.72;;;11.55;71.32
51313;BME280;37397;53.226;10.400;2024-03-02T12:44:21;100096.13;;;11.64;71.27
51313;BME280;37397;53.226;10.400;2024-03-02T12:46:48;100100.25;;;11.63;71.21
51313;BME280;37397;53.226;10.400;2024-03-02T12:49:15;100099.25;;;11.66;71.22
51313;BME280;37397;53.226;10.400;2024-03-02T12:51:47;100099.53;;;11.68;71.22
51313;BME280;37397;53.226;10.400;2024-03-02T12:54:18;100096.16;;;11.70;71.17
51313;BME280;37397;53.226;10.400;2024-03-02T12:56:45;100091.75;;;11.69;71.34
51313;BME280;37397;53.226;10.400;2024-03-02T12:59:24;100092.78;;;11.72;71.17